sensor_id;sensor_type;location;lat;lon;timestamp;P1;durP1;ratioP1;P2;durP2;ratioP2
65130;SDS011;51709;54.912;8.316;2022-11-20T00:02:23;1.35;;;1.10;;
65130;SDS011;51709;54.912;8.316;2022-11-20T00:07:43;1.58;;;0.82;;
65130;SDS011;51709;54.912;8.316;2022-11-20T00:13:04;1.55;;;0.90;;
65130;SDS011;51709;54.912;8.316;2022-11-20T00:18:25;3.42;;;1.20;;
65130;SDS011;51709;54.912;8.316;2022-11-20T00:23:46;0.98;;;0.68;;
65130;SDS011;51709;54.912;8.316;2022-11-20T00:29:08;1.13;;;0.80;;
65130;SDS011;51709;54.912;8.316;2022-11-20T00:34:30;2.03;;;1.02;;
65130;SDS011;51709;54.912;8.316;2022-11-20T00:39:50;7.38;;;1.35;;
65130;SDS011;51709;54.912;8.316;2022-11-20T00:45:11;1.55;;;1.17;;
65130;SDS011;51709;54.912;8.316;2022-11-20T00:50:31;3.15;;;1.25;;
65130;SDS011;51709;54.912;8.316;2022-11-20T00:55:56;4.75;;;0.98;;
65130;SDS011;51709;54.912;8.316;2022-11-20T01:01:22;2.95;;;1.38;;
65130;SDS011;51709;54.912;8.316;2022-11-20T01:06:44;5.20;;;1.10;;
65130;SDS011;51709;54.912;8.316;2022-11-20T01:12:05;3.55;;;1.25;;
65130;SDS011;51709;54.912;8.316;2022-11-20T01:17:25;3.28;;;1.20;;
65130;SDS011;51709;54.912;8.316;2022-11-20T01:22:46;6.30;;;1.10;;
65130;SDS011;51709;54.912;8.316;2022-11-20T01:28:06;1.23;;;1.00;;
65130;SDS011;51709;54.912;8.316;2022-11-20T01:33:27;1.25;;;1.15;;
65130;SDS011;51709;54.912;8.316;2022-11-20T01:38:50;4.70;;;1.13;;
65130;SDS011;51709;54.912;8.316;2022-11-20T01:44:13;3.00;;;1.30;;
65130;SDS011;51709;54.912;8.316;2022-11-20T01:49:52;1.73;;;1.15;;
65130;SDS011;51709;54.912;8.316;2022-11-20T01:55:25;5.72;;;1.38;;
65130;SDS011;51709;54.912;8.316;2022-11-20T02:00:48;0.93;;;0.93;;
65130;SDS011;51709;54.912;8.316;2022-11-20T02:11:56;1.50;;;1.30;;
65130;SDS011;51709;54.912;8.316;2022-11-20T02:17:18;2.65;;;1.00;;
65130;SDS011;51709;54.912;8.316;2022-11-20T02:22:42;4.43;;;1.35;;
65130;SDS011;51709;54.912;8.316;2022-11-20T02:28:14;4.50;;;1.42;;
65130;SDS011;51709;54.912;8.316;2022-11-20T02:33:36;1.10;;;1.00;;
65130;SDS011;51709;54.912;8.316;2022-11-20T02:38:57;3.33;;;1.02;;
65130;SDS011;51709;54.912;8.316;2022-11-20T02:44:18;2.92;;;0.70;;
65130;SDS011;51709;54.912;8.316;2022-11-20T02:49:39;1.15;;;0.77;;
65130;SDS011;51709;54.912;8.316;2022-11-20T02:55:00;2.85;;;0.95;;
65130;SDS011;51709;54.912;8.316;2022-11-20T03:00:21;1.83;;;0.90;;
65130;SDS011;51709;54.912;8.316;2022-11-20T03:05:42;1.85;;;0.88;;
65130;SDS011;51709;54.912;8.316;2022-11-20T03:11:04;3.45;;;1.00;;
65130;SDS011;51709;54.912;8.316;2022-11-20T03:16:26;2.63;;;0.93;;
65130;SDS011;51709;54.912;8.316;2022-11-20T03:21:47;3.30;;;1.20;;
65130;SDS011;51709;54.912;8.316;2022-11-20T03:27:07;1.50;;;0.88;;
65130;SDS011;51709;54.912;8.316;2022-11-20T03:32:28;1.67;;;1.08;;
65130;SDS011;51709;54.912;8.316;2022-11-20T03:37:48;1.35;;;1.20;;
65130;SDS011;51709;54.912;8.316;2022-11-20T03:43:09;1.30;;;1.00;;
65130;SDS011;51709;54.912;8.316;2022-11-20T03:48:30;0.60;;;0.60;;
65130;SDS011;51709;54.912;8.316;2022-11-20T03:53:52;1.98;;;1.08;;
65130;SDS011;51709;54.912;8.316;2022-11-20T03:59:15;1.75;;;1.13;;
65130;SDS011;51709;54.912;8.316;2022-11-20T04:04:35;2.95;;;1.10;;
65130;SDS011;51709;54.912;8.316;2022-11-20T04:09:56;0.75;;;0.75;;
65130;SDS011;51709;54.912;8.316;2022-11-20T04:15:17;0.93;;;0.90;;
65130;SDS011;51709;54.912;8.316;2022-11-20T04:20:38;2.60;;;0.90;;
65130;SDS011;51709;54.912;8.316;2022-11-20T04:26:06;2.97;;;1.30;;
65130;SDS011;51709;54.912;8.316;2022-11-20T04:31:29;2.10;;;0.80;;
65130;SDS011;51709;54.912;8.316;2022-11-20T04:36:53;3.08;;;1.20;;
65130;SDS011;51709;54.912;8.316;2022-11-20T04:42:14;1.00;;;1.00;;
65130;SDS011;51709;54.912;8.316;2022-11-20T04:47:49;1.90;;;1.30;;
65130;SDS011;51709;54.912;8.316;2022-11-20T04:53:10;2.67;;;0.93;;
65130;SDS011;51709;54.912;8.316;2022-11-20T04:58:30;1.35;;;1.25;;
65130;SDS011;51709;54.912;8.316;2022-11-20T05:03:51;1.23;;;0.98;;
65130;SDS011;51709;54.912;8.316;2022-11-20T05:09:12;4.15;;;1.23;;
65130;SDS011;51709;54.912;8.316;2022-11-20T05:14:33;1.10;;;1.00;;
65130;SDS011;51709;54.912;8.316;2022-11-20T05:19:54;1.08;;;0.98;;
65130;SDS011;51709;54.912;8.316;2022-11-20T05:25:16;2.53;;;1.00;;
65130;SDS011;51709;54.912;8.316;2022-11-20T05:30:38;3.78;;;1.15;;
65130;SDS011;51709;54.912;8.316;2022-11-20T05:36:00;1.42;;;0.95;;
65130;SDS011;51709;54.912;8.316;2022-11-20T05:41:21;3.05;;;1.20;;
65130;SDS011;51709;54.912;8.316;2022-11-20T05:46:42;1.42;;;1.33;;
65130;SDS011;51709;54.912;8.316;2022-11-20T05:52:02;7.93;;;1.40;;
65130;SDS011;51709;54.912;8.316;2022-11-20T05:57:23;1.65;;;1.13;;
65130;SDS011;51709;54.912;8.316;2022-11-20T06:02:44;1.33;;;1.23;;
65130;SDS011;51709;54.912;8.316;2022-11-20T06:08:04;1.70;;;1.27;;
65130;SDS011;51709;54.912;8.316;2022-11-20T06:13:25;1.65;;;1.55;;
65130;SDS011;51709;54.912;8.316;2022-11-20T06:18:46;2.30;;;0.95;;
65130;SDS011;51709;54.912;8.316;2022-11-20T06:24:08;1.45;;;1.35;;
65130;SDS011;51709;54.912;8.316;2022-11-20T06:29:29;1.90;;;1.65;;
65130;SDS011;51709;54.912;8.316;2022-11-20T06:34:53;1.42;;;1.05;;
65130;SDS011;51709;54.912;8.316;2022-11-20T06:40:14;6.97;;;1.50;;
65130;SDS011;51709;54.912;8.316;2022-11-20T06:45:34;1.42;;;1.30;;
65130;SDS011;51709;54.912;8.316;2022-11-20T06:50:56;2.47;;;1.63;;
65130;SDS011;51709;54.912;8.316;2022-11-20T06:56:18;2.10;;;1.75;;
65130;SDS011;51709;54.912;8.316;2022-11-20T07:01:38;1.30;;;1.20;;
65130;SDS011;51709;54.912;8.316;2022-11-20T07:06:59;1.88;;;1.38;;
65130;SDS011;51709;54.912;8.316;2022-11-20T07:12:19;3.83;;;1.80;;
65130;SDS011;51709;54.912;8.316;2022-11-20T07:17:40;1.77;;;1.45;;
65130;SDS011;51709;54.912;8.316;2022-11-20T07:23:01;1.48;;;1.38;;
65130;SDS011;51709;54.912;8.316;2022-11-20T07:28:21;1.63;;;1.10;;
65130;SDS011;51709;54.912;8.316;2022-11-20T07:33:42;4.18;;;1.35;;
65130;SDS011;51709;54.912;8.316;2022-11-20T07:39:03;1.67;;;1.58;;
65130;SDS011;51709;54.912;8.316;2022-11-20T07:44:25;1.75;;;1.20;;
65130;SDS011;51709;54.912;8.316;2022-11-20T07:49:46;1.33;;;1.23;;
65130;SDS011;51709;54.912;8.316;2022-11-20T07:55:08;6.00;;;1.50;;
65130;SDS011;51709;54.912;8.316;2022-11-20T08:00:29;2.05;;;1.42;;
65130;SDS011;51709;54.912;8.316;2022-11-20T08:05:51;5.57;;;1.63;;
65130;SDS011;51709;54.912;8.316;2022-11-20T08:11:13;6.03;;;2.42;;
65130;SDS011;51709;54.912;8.316;2022-11-20T08:16:52;4.03;;;1.85;;
65130;SDS011;51709;54.912;8.316;2022-11-20T08:22:12;5.47;;;2.60;;
65130;SDS011;51709;54.912;8.316;2022-11-20T08:27:33;2.05;;;1.75;;
65130;SDS011;51709;54.912;8.316;2022-11-20T08:32:54;2.92;;;1.90;;
65130;SDS011;51709;54.912;8.316;2022-11-20T08:38:21;3.08;;;1.88;;
65130;SDS011;51709;54.912;8.316;2022-11-20T08:43:41;6.10;;;1.77;;
65130;SDS011;51709;54.912;8.316;2022-11-20T08:49:03;2.25;;;1.52;;
65130;SDS011;51709;54.912;8.316;2022-11-20T08:54:28;2.72;;;1.55;;
65130;SDS011;51709;54.912;8.316;2022-11-20T08:59:49;2.03;;;1.33;;
65130;SDS011;51709;54.912;8.316;2022-11-20T09:05:27;1.30;;;1.13;;
65130;SDS011;51709;54.912;8.316;2022-11-20T09:10:50;2.22;;;1.73;;
65130;SDS011;51709;54.912;8.316;2022-11-20T09:16:14;5.68;;;1.52;;
65130;SDS011;51709;54.912;8.316;2022-11-20T09:21:35;1.60;;;1.40;;
65130;SDS011;51709;54.912;8.316;2022-11-20T09:26:56;1.80;;;1.70;;
65130;SDS011;51709;54.912;8.316;2022-11-20T09:32:17;1.83;;;1.73;;
65130;SDS011;51709;54.912;8.316;2022-11-20T09:37:39;1.52;;;1.30;;
65130;SDS011;51709;54.912;8.316;2022-11-20T09:54:39;1.52;;;1.42;;
65130;SDS011;51709;54.912;8.316;2022-11-20T10:00:02;1.05;;;1.00;;
65130;SDS011;51709;54.912;8.316;2022-11-20T10:05:33;1.75;;;1.33;;
65130;SDS011;51709;54.912;8.316;2022-11-20T10:11:21;1.65;;;1.30;;
65130;SDS011;51709;54.912;8.316;2022-11-20T10:17:12;2.55;;;1.02;;
65130;SDS011;51709;54.912;8.316;2022-11-20T10:28:56;1.10;;;1.10;;
65130;SDS011;51709;54.912;8.316;2022-11-20T10:40:23;1.50;;;1.40;;
65130;SDS011;51709;54.912;8.316;2022-11-20T10:46:10;1.60;;;1.50;;
65130;SDS011;51709;54.912;8.316;2022-11-20T10:51:37;3.17;;;1.52;;
65130;SDS011;51709;54.912;8.316;2022-11-20T10:57:13;1.35;;;1.25;;
65130;SDS011;51709;54.912;8.316;2022-11-20T11:02:51;3.53;;;1.60;;
65130;SDS011;51709;54.912;8.316;2022-11-20T11:08:15;3.47;;;1.73;;
65130;SDS011;51709;54.912;8.316;2022-11-20T11:13:37;1.87;;;1.63;;
65130;SDS011;51709;54.912;8.316;2022-11-20T11:19:05;3.58;;;1.40;;
65130;SDS011;51709;54.912;8.316;2022-11-20T11:24:33;1.15;;;1.13;;
65130;SDS011;51709;54.912;8.316;2022-11-20T11:30:12;1.88;;;1.67;;
65130;SDS011;51709;54.912;8.316;2022-11-20T11:35:38;4.35;;;1.52;;
65130;SDS011;51709;54.912;8.316;2022-11-20T11:41:16;1.20;;;1.10;;
65130;SDS011;51709;54.912;8.316;2022-11-20T11:46:43;2.00;;;1.33;;
65130;SDS011;51709;54.912;8.316;2022-11-20T11:52:14;1.75;;;1.65;;
65130;SDS011;51709;54.912;8.316;2022-11-20T12:08:44;1.83;;;1.65;;
65130;SDS011;51709;54.912;8.316;2022-11-20T12:14:11;2.35;;;1.73;;
65130;SDS011;51709;54.912;8.316;2022-11-20T12:19:37;1.80;;;1.70;;
65130;SDS011;51709;54.912;8.316;2022-11-20T12:30:30;2.58;;;2.03;;
65130;SDS011;51709;54.912;8.316;2022-11-20T13:04:55;2.65;;;1.92;;
65130;SDS011;51709;54.912;8.316;2022-11-20T13:10:39;1.95;;;1.30;;
65130;SDS011;51709;54.912;8.316;2022-11-20T13:16:27;2.22;;;1.25;;
65130;SDS011;51709;54.912;8.316;2022-11-20T13:22:10;3.83;;;1.40;;
65130;SDS011;51709;54.912;8.316;2022-11-20T13:27:31;1.55;;;1.45;;
65130;SDS011;51709;54.912;8.316;2022-11-20T13:33:38;2.42;;;1.70;;
65130;SDS011;51709;54.912;8.316;2022-11-20T13:38:46;1.77;;;1.45;;
65130;SDS011;51709;54.912;8.316;2022-11-20T13:49:34;3.15;;;1.38;;
65130;SDS011;51709;54.912;8.316;2022-11-20T14:01:29;4.15;;;2.58;;
65130;SDS011;51709;54.912;8.316;2022-11-20T14:06:42;4.85;;;1.75;;
65130;SDS011;51709;54.912;8.316;2022-11-20T14:12:12;1.65;;;1.55;;
65130;SDS011;51709;54.912;8.316;2022-11-20T14:17:36;1.92;;;1.73;;
65130;SDS011;51709;54.912;8.316;2022-11-20T14:22:58;2.35;;;1.95;;
65130;SDS011;51709;54.912;8.316;2022-11-20T14:28:20;2.47;;;1.42;;
65130;SDS011;51709;54.912;8.316;2022-11-20T14:33:46;5.40;;;1.67;;
65130;SDS011;51709;54.912;8.316;2022-11-20T14:39:09;1.67;;;1.25;;
65130;SDS011;51709;54.912;8.316;2022-11-20T14:44:34;2.17;;;1.85;;
65130;SDS011;51709;54.912;8.316;2022-11-20T14:49:58;1.58;;;1.38;;
65130;SDS011;51709;54.912;8.316;2022-11-20T14:55:33;3.42;;;3.03;;
65130;SDS011;51709;54.912;8.316;2022-11-20T15:00:59;2.42;;;1.83;;
65130;SDS011;51709;54.912;8.316;2022-11-20T15:06:25;2.55;;;2.20;;
65130;SDS011;51709;54.912;8.316;2022-11-20T15:12:00;4.43;;;1.95;;
65130;SDS011;51709;54.912;8.316;2022-11-20T15:17:23;3.92;;;1.95;;
65130;SDS011;51709;54.912;8.316;2022-11-20T15:22:44;4.60;;;1.90;;
65130;SDS011;51709;54.912;8.316;2022-11-20T15:28:04;3.38;;;1.90;;
65130;SDS011;51709;54.912;8.316;2022-11-20T15:39:00;2.47;;;2.22;;
65130;SDS011;51709;54.912;8.316;2022-11-20T15:44:22;3.47;;;2.28;;
65130;SDS011;51709;54.912;8.316;2022-11-20T15:49:43;1.90;;;1.75;;
65130;SDS011;51709;54.912;8.316;2022-11-20T15:55:08;2.22;;;1.95;;
65130;SDS011;51709;54.912;8.316;2022-11-20T16:00:30;2.17;;;1.92;;
65130;SDS011;51709;54.912;8.316;2022-11-20T16:05:51;2.40;;;2.03;;
65130;SDS011;51709;54.912;8.316;2022-11-20T16:11:15;2.35;;;2.15;;
65130;SDS011;51709;54.912;8.316;2022-11-20T16:16:37;1.70;;;1.48;;
65130;SDS011;51709;54.912;8.316;2022-11-20T16:21:59;2.13;;;1.60;;
65130;SDS011;51709;54.912;8.316;2022-11-20T16:27:23;3.07;;;1.77;;
65130;SDS011;51709;54.912;8.316;2022-11-20T16:32:44;2.67;;;1.45;;
65130;SDS011;51709;54.912;8.316;2022-11-20T16:38:04;1.92;;;1.75;;
65130;SDS011;51709;54.912;8.316;2022-11-20T16:43:25;6.72;;;2.65;;
65130;SDS011;51709;54.912;8.316;2022-11-20T16:48:56;2.22;;;1.77;;
65130;SDS011;51709;54.912;8.316;2022-11-20T16:54:21;4.57;;;2.10;;
65130;SDS011;51709;54.912;8.316;2022-11-20T16:59:42;3.03;;;1.98;;
65130;SDS011;51709;54.912;8.316;2022-11-20T17:05:03;3.17;;;2.53;;
65130;SDS011;51709;54.912;8.316;2022-11-20T17:10:24;3.75;;;2.83;;
65130;SDS011;51709;54.912;8.316;2022-11-20T17:15:45;6.75;;;2.97;;
65130;SDS011;51709;54.912;8.316;2022-11-20T17:21:06;7.22;;;4.72;;
65130;SDS011;51709;54.912;8.316;2022-11-20T17:26:27;23.92;;;9.80;;
65130;SDS011;51709;54.912;8.316;2022-11-20T17:31:48;22.75;;;9.50;;
65130;SDS011;51709;54.912;8.316;2022-11-20T17:37:10;8.05;;;5.45;;
65130;SDS011;51709;54.912;8.316;2022-11-20T17:42:30;8.23;;;3.42;;
65130;SDS011;51709;54.912;8.316;2022-11-20T17:47:56;4.20;;;2.45;;
65130;SDS011;51709;54.912;8.316;2022-11-20T17:53:17;3.90;;;2.75;;
65130;SDS011;51709;54.912;8.316;2022-11-20T17:58:37;6.32;;;4.07;;
65130;SDS011;51709;54.912;8.316;2022-11-20T18:03:58;9.10;;;5.93;;
65130;SDS011;51709;54.912;8.316;2022-11-20T18:09:18;12.75;;;6.05;;
65130;SDS011;51709;54.912;8.316;2022-11-20T18:14:39;7.78;;;4.03;;
65130;SDS011;51709;54.912;8.316;2022-11-20T18:20:01;9.77;;;3.67;;
65130;SDS011;51709;54.912;8.316;2022-11-20T18:25:42;7.38;;;3.28;;
65130;SDS011;51709;54.912;8.316;2022-11-20T18:31:07;6.40;;;2.17;;
65130;SDS011;51709;54.912;8.316;2022-11-20T18:36:28;2.65;;;2.17;;
65130;SDS011;51709;54.912;8.316;2022-11-20T18:41:50;3.28;;;2.45;;
65130;SDS011;51709;54.912;8.316;2022-11-20T18:47:30;3.88;;;2.50;;
65130;SDS011;51709;54.912;8.316;2022-11-20T18:52:55;5.85;;;2.92;;
65130;SDS011;51709;54.912;8.316;2022-11-20T18:58:16;3.72;;;3.10;;
65130;SDS011;51709;54.912;8.316;2022-11-20T19:03:37;5.53;;;2.22;;
65130;SDS011;51709;54.912;8.316;2022-11-20T19:08:58;2.78;;;2.00;;
65130;SDS011;51709;54.912;8.316;2022-11-20T19:14:18;1.70;;;1.60;;
65130;SDS011;51709;54.912;8.316;2022-11-20T19:19:46;2.65;;;2.20;;
65130;SDS011;51709;54.912;8.316;2022-11-20T19:25:08;2.35;;;2.10;;
65130;SDS011;51709;54.912;8.316;2022-11-20T19:30:29;3.13;;;2.10;;
65130;SDS011;51709;54.912;8.316;2022-11-20T19:35:49;3.72;;;2.30;;
65130;SDS011;51709;54.912;8.316;2022-11-20T19:41:10;5.03;;;2.35;;
65130;SDS011;51709;54.912;8.316;2022-11-20T19:46:31;4.78;;;2.53;;
65130;SDS011;51709;54.912;8.316;2022-11-20T19:51:53;5.13;;;1.85;;
65130;SDS011;51709;54.912;8.316;2022-11-20T19:57:14;3.45;;;1.85;;
65130;SDS011;51709;54.912;8.316;2022-11-20T20:02:35;6.15;;;2.50;;
65130;SDS011;51709;54.912;8.316;2022-11-20T20:07:56;2.33;;;2.03;;
65130;SDS011;51709;54.912;8.316;2022-11-20T20:13:17;4.95;;;1.92;;
65130;SDS011;51709;54.912;8.316;2022-11-20T20:18:38;2.58;;;1.83;;
65130;SDS011;51709;54.912;8.316;2022-11-20T20:23:59;8.50;;;4.43;;
65130;SDS011;51709;54.912;8.316;2022-11-20T20:29:23;8.83;;;3.17;;
65130;SDS011;51709;54.912;8.316;2022-11-20T20:34:44;8.70;;;4.60;;
65130;SDS011;51709;54.912;8.316;2022-11-20T20:40:05;13.20;;;5.93;;
65130;SDS011;51709;54.912;8.316;2022-11-20T20:45:34;6.57;;;4.20;;
65130;SDS011;51709;54.912;8.316;2022-11-20T20:50:58;10.75;;;3.80;;
65130;SDS011;51709;54.912;8.316;2022-11-20T20:56:20;6.85;;;3.65;;
65130;SDS011;51709;54.912;8.316;2022-11-20T21:01:40;6.03;;;3.83;;
65130;SDS011;51709;54.912;8.316;2022-11-20T21:07:01;6.85;;;4.60;;
65130;SDS011;51709;54.912;8.316;2022-11-20T21:12:21;10.82;;;4.40;;
65130;SDS011;51709;54.912;8.316;2022-11-20T21:17:42;6.20;;;3.88;;
65130;SDS011;51709;54.912;8.316;2022-11-20T21:23:07;4.32;;;3.20;;
65130;SDS011;51709;54.912;8.316;2022-11-20T21:28:32;7.47;;;3.65;;
65130;SDS011;51709;54.912;8.316;2022-11-20T21:33:55;5.30;;;3.10;;
65130;SDS011;51709;54.912;8.316;2022-11-20T21:39:16;6.18;;;3.25;;
65130;SDS011;51709;54.912;8.316;2022-11-20T21:44:40;4.15;;;2.40;;
65130;SDS011;51709;54.912;8.316;2022-11-20T21:50:01;3.10;;;2.28;;
65130;SDS011;51709;54.912;8.316;2022-11-20T21:55:22;5.28;;;2.80;;
65130;SDS011;51709;54.912;8.316;2022-11-20T22:00:43;6.43;;;2.75;;
65130;SDS011;51709;54.912;8.316;2022-11-20T22:06:04;4.43;;;2.20;;
65130;SDS011;51709;54.912;8.316;2022-11-20T22:11:26;4.43;;;2.63;;
65130;SDS011;51709;54.912;8.316;2022-11-20T22:16:47;3.80;;;2.38;;
65130;SDS011;51709;54.912;8.316;2022-11-20T22:22:10;4.25;;;1.98;;
65130;SDS011;51709;54.912;8.316;2022-11-20T22:27:30;3.30;;;2.00;;
65130;SDS011;51709;54.912;8.316;2022-11-20T22:32:57;1.70;;;1.60;;
65130;SDS011;51709;54.912;8.316;2022-11-20T22:38:17;2.72;;;2.20;;
65130;SDS011;51709;54.912;8.316;2022-11-20T22:43:38;3.97;;;1.95;;
65130;SDS011;51709;54.912;8.316;2022-11-20T22:49:01;2.72;;;1.90;;
65130;SDS011;51709;54.912;8.316;2022-11-20T22:54:24;1.30;;;1.20;;
65130;SDS011;51709;54.912;8.316;2022-11-20T22:59:47;2.17;;;1.48;;
65130;SDS011;51709;54.912;8.316;2022-11-20T23:05:08;1.92;;;1.45;;
65130;SDS011;51709;54.912;8.316;2022-11-20T23:10:29;2.53;;;1.65;;
65130;SDS011;51709;54.912;8.316;2022-11-20T23:15:50;9.00;;;1.77;;
65130;SDS011;51709;54.912;8.316;2022-11-20T23:21:11;4.60;;;1.90;;
65130;SDS011;51709;54.912;8.316;2022-11-20T23:26:35;3.25;;;1.70;;
65130;SDS011;51709;54.912;8.316;2022-11-20T23:31:57;3.05;;;1.80;;
65130;SDS011;51709;54.912;8.316;2022-11-20T23:37:18;1.77;;;1.67;;
65130;SDS011;51709;54.912;8.316;2022-11-20T23:42:39;2.63;;;1.50;;
65130;SDS011;51709;54.912;8.316;2022-11-20T23:48:20;2.70;;;2.10;;
65130;SDS011;51709;54.912;8.316;2022-11-20T23:53:42;5.53;;;1.60;;
65130;SDS011;51709;54.912;8.316;2022-11-20T23:59:05;3.10;;;1.77;;
